Time;durP1;ratioP1;P1;durP2;ratioP2;P2;SDS_P1;SDS_P2;PMS_P1;PMS_P2;Temp;Humidity;BMP_temperature;BMP_pressure;BME280_temperature;BME280_humidity;BME280_pressure;Samples;Min_cycle;Max_cycle;Signal;HPM_P1;HPM_P2
2022/11/25 00:01:53;;;;;;;;;18.00;16.25;;;;;;;;5121206;27;51003;-52
2022/11/25 00:04:38;;;;;;;;;21.00;17.75;;;;;;;;5122375;27;51099;-51
2022/11/25 00:07:22;;;;;;;;;23.75;18.00;;;;;;;;5121581;27;51453;-54
2022/11/25 00:10:07;;;;;;;;;25.00;21.00;;;;;;;;5101749;27;51603;-51
2022/11/25 00:12:51;;;;;;;;;20.50;15.00;;;;;;;;5117088;27;51404;-51
2022/11/25 00:15:35;;;;;;;;;22.75;19.00;;;;;;;;5121638;27;51190;-52
2022/11/25 00:18:20;;;;;;;;;19.25;15.25;;;;;;;;5121911;27;51108;-48
2022/11/25 00:21:06;;;;;;;;;16.25;14.25;;;;;;;;5121547;27;51117;-47
2022/11/25 00:23:54;;;;;;;;;17.00;14.25;;;;;;;;5121828;27;51051;-51
2022/11/25 00:26:39;;;;;;;;;17.25;14.00;;;;;;;;5121599;27;51053;-51
2022/11/25 00:29:23;;;;;;;;;14.50;12.75;;;;;;;;5121394;27;51115;-51
2022/11/25 00:32:07;;;;;;;;;11.75;11.50;;;;;;;;5121322;27;51493;-50
2022/11/25 00:34:52;;;;;;;;;19.00;15.25;;;;;;;;5121408;27;51203;-49
2022/11/25 00:37:36;;;;;;;;;17.75;13.75;;;;;;;;5119113;27;51243;-50
2022/11/25 00:40:20;;;;;;;;;18.50;15.25;;;;;;;;5100726;27;51129;-46
2022/11/25 00:46:27;;;;;;;;;20.25;16.00;;;;;;;;5077540;27;51149;-50
2022/11/25 00:49:11;;;;;;;;;17.75;14.75;;;;;;;;5077872;27;51121;-53
2022/11/25 00:51:55;;;;;;;;;17.75;14.75;;;;;;;;5114017;27;51217;-51
2022/11/25 00:54:39;;;;;;;;;14.50;13.75;;;;;;;;5121280;27;51175;-50
2022/11/25 00:57:24;;;;;;;;;14.00;12.50;;;;;;;;5120900;27;51524;-52
2022/11/25 01:00:09;;;;;;;;;13.25;13.00;;;;;;;;5107191;27;51081;-49
2022/11/25 01:02:53;;;;;;;;;20.00;14.25;;;;;;;;5121043;27;51410;-51
2022/11/25 01:05:38;;;;;;;;;15.50;14.25;;;;;;;;5120668;27;51179;-50
2022/11/25 01:08:22;;;;;;;;;14.00;14.00;;;;;;;;5118056;27;51124;-48
2022/11/25 01:11:08;;;;;;;;;14.00;9.50;;;;;;;;5113551;27;51414;-52
2022/11/25 01:13:55;;;;;;;;;20.50;14.00;;;;;;;;5120608;27;51085;-52
2022/11/25 01:16:39;;;;;;;;;17.00;15.75;;;;;;;;5120367;27;51085;-52
2022/11/25 01:19:24;;;;;;;;;16.50;15.50;;;;;;;;5121112;27;51160;-53
2022/11/25 01:22:08;;;;;;;;;20.50;16.50;;;;;;;;5120738;27;51369;-52
2022/11/25 01:24:52;;;;;;;;;14.00;14.00;;;;;;;;5120800;27;51120;-47
2022/11/25 01:27:41;;;;;;;;;18.50;17.50;;;;;;;;5090377;27;51478;-50
2022/11/25 01:30:26;;;;;;;;;14.75;14.50;;;;;;;;5100027;27;51216;-48
2022/11/25 01:33:10;;;;;;;;;22.00;15.00;;;;;;;;5100408;27;51172;-50
2022/11/25 01:35:55;;;;;;;;;18.75;16.75;;;;;;;;5099566;27;51556;-51
2022/11/25 01:38:39;;;;;;;;;20.50;16.75;;;;;;;;5099953;27;51189;-49
2022/11/25 01:41:25;;;;;;;;;16.75;13.75;;;;;;;;5115208;27;51211;-51
2022/11/25 01:44:12;;;;;;;;;19.50;18.50;;;;;;;;5120784;27;51101;-51
2022/11/25 01:46:56;;;;;;;;;25.50;19.75;;;;;;;;5120214;27;51443;-51
2022/11/25 01:50:00;;;;;;;;;19.25;16.00;;;;;;;;5120577;27;51171;-51
2022/11/25 01:52:46;;;;;;;;;24.25;17.50;;;;;;;;5120596;27;51203;-51
2022/11/25 01:55:33;;;;;;;;;22.50;19.00;;;;;;;;5120222;27;51159;-50
2022/11/25 01:58:20;;;;;;;;;20.00;18.00;;;;;;;;5099976;27;51205;-51
2022/11/25 02:01:04;;;;;;;;;19.25;16.25;;;;;;;;5099333;27;51453;-49
2022/11/25 02:03:51;;;;;;;;;18.25;15.50;;;;;;;;5099932;27;51079;-50
2022/11/25 02:06:39;;;;;;;;;21.00;20.00;;;;;;;;5119285;27;51082;-52
2022/11/25 02:09:24;;;;;;;;;22.75;18.00;;;;;;;;5112956;27;51035;-50
2022/11/25 02:12:09;;;;;;;;;18.75;18.00;;;;;;;;5107766;27;51403;-50
2022/11/25 02:14:54;;;;;;;;;18.75;16.00;;;;;;;;5119204;27;51192;-50
2022/11/25 02:17:39;;;;;;;;;19.25;16.00;;;;;;;;5120038;27;51368;-50
2022/11/25 02:20:24;;;;;;;;;21.75;20.50;;;;;;;;5119699;27;51095;-53
2022/11/25 02:23:14;;;;;;;;;21.00;17.25;;;;;;;;5120346;27;51092;-47
2022/11/25 02:25:58;;;;;;;;;21.50;18.25;;;;;;;;5123386;27;51954;-48
2022/11/25 02:28:43;;;;;;;;;20.25;18.25;;;;;;;;5118041;27;51093;-50
2022/11/25 02:31:27;;;;;;;;;20.00;17.00;;;;;;;;5123769;27;51100;-52
2022/11/25 02:34:12;;;;;;;;;18.75;16.50;;;;;;;;5124008;27;51104;-48
2022/11/25 02:36:58;;;;;;;;;25.00;17.75;;;;;;;;5123688;27;51126;-49
2022/11/25 02:39:42;;;;;;;;;17.00;17.00;;;;;;;;5123752;27;51144;-49
2022/11/25 02:42:27;;;;;;;;;21.25;15.50;;;;;;;;5123583;27;51068;-50
2022/11/25 02:45:14;;;;;;;;;19.00;17.00;;;;;;;;5123445;27;51151;-50
2022/11/25 02:47:58;;;;;;;;;23.50;17.75;;;;;;;;5123913;27;51204;-50
2022/11/25 02:50:43;;;;;;;;;22.00;19.50;;;;;;;;5123400;27;51083;-51
2022/11/25 02:53:27;;;;;;;;;19.50;17.75;;;;;;;;5123495;27;51155;-50
2022/11/25 02:56:12;;;;;;;;;18.25;17.75;;;;;;;;5123233;27;51091;-48
2022/11/25 02:58:57;;;;;;;;;20.25;20.00;;;;;;;;5123633;27;50995;-50
2022/11/25 03:01:41;;;;;;;;;21.00;16.25;;;;;;;;5123148;27;51471;-51
2022/11/25 03:04:25;;;;;;;;;21.25;17.25;;;;;;;;5122930;27;51116;-49
2022/11/25 03:07:10;;;;;;;;;27.50;21.25;;;;;;;;5123240;27;51017;-50
2022/11/25 03:09:54;;;;;;;;;21.50;16.50;;;;;;;;5123007;27;51037;-50
2022/11/25 03:12:39;;;;;;;;;21.00;21.00;;;;;;;;5123107;27;51072;-52
2022/11/25 03:15:23;;;;;;;;;28.75;22.75;;;;;;;;5122972;27;51541;-52
2022/11/25 03:18:08;;;;;;;;;27.25;26.25;;;;;;;;5122988;27;51518;-51
2022/11/25 03:20:53;;;;;;;;;21.50;19.00;;;;;;;;5122835;27;51090;-47
2022/11/25 03:23:37;;;;;;;;;24.00;21.50;;;;;;;;5122969;27;51184;-52
2022/11/25 03:26:24;;;;;;;;;23.25;21.00;;;;;;;;5122580;27;51090;-53
2022/11/25 03:29:09;;;;;;;;;27.25;21.00;;;;;;;;5122697;27;51103;-49
2022/11/25 03:31:53;;;;;;;;;24.75;20.50;;;;;;;;5122714;27;51017;-48
2022/11/25 03:34:38;;;;;;;;;26.50;24.50;;;;;;;;5122327;27;51073;-52
2022/11/25 03:37:22;;;;;;;;;26.75;23.25;;;;;;;;5122820;27;51150;-52
2022/11/25 03:40:07;;;;;;;;;26.00;22.75;;;;;;;;5122444;27;51443;-53
2022/11/25 03:42:52;;;;;;;;;25.50;23.50;;;;;;;;5122318;27;51030;-52
2022/11/25 03:45:36;;;;;;;;;28.00;24.00;;;;;;;;5122263;27;51185;-49
2022/11/25 03:48:20;;;;;;;;;27.25;24.25;;;;;;;;5122591;27;51154;-53
2022/11/25 03:51:05;;;;;;;;;23.25;22.25;;;;;;;;5122064;27;51109;-48
2022/11/25 03:53:50;;;;;;;;;29.75;25.00;;;;;;;;5121965;27;51211;-52
2022/11/25 03:56:34;;;;;;;;;37.75;30.75;;;;;;;;5122350;27;52977;-53
2022/11/25 03:59:18;;;;;;;;;32.75;30.00;;;;;;;;5122074;27;51080;-52
2022/11/25 04:02:03;;;;;;;;;31.25;29.50;;;;;;;;5122347;27;51132;-50
2022/11/25 04:04:47;;;;;;;;;32.50;30.50;;;;;;;;5121794;27;51183;-49
2022/11/25 04:07:32;;;;;;;;;30.00;28.25;;;;;;;;5122159;27;51142;-51
2022/11/25 04:10:16;;;;;;;;;32.50;27.00;;;;;;;;5121956;27;51057;-50
2022/11/25 04:13:01;;;;;;;;;32.00;27.25;;;;;;;;5122055;27;51144;-52
2022/11/25 04:15:48;;;;;;;;;31.50;25.75;;;;;;;;5121566;27;51465;-52
2022/11/25 04:18:32;;;;;;;;;37.50;29.75;;;;;;;;5121783;27;51201;-48
2022/11/25 04:21:17;;;;;;;;;31.50;28.00;;;;;;;;5121681;27;51453;-51
2022/11/25 04:24:01;;;;;;;;;33.00;29.50;;;;;;;;5121374;27;51134;-50
2022/11/25 04:26:46;;;;;;;;;37.25;31.50;;;;;;;;5121975;27;51163;-48
2022/11/25 04:29:30;;;;;;;;;33.25;30.00;;;;;;;;5121318;27;51335;-51
2022/11/25 04:32:14;;;;;;;;;30.75;30.00;;;;;;;;5119444;27;51044;-51
2022/11/25 04:34:59;;;;;;;;;35.75;30.50;;;;;;;;5100693;27;51197;-47
2022/11/25 04:37:43;;;;;;;;;36.75;31.50;;;;;;;;5116825;27;51028;-49
2022/11/25 04:40:27;;;;;;;;;33.75;29.25;;;;;;;;5121001;27;51101;-49
2022/11/25 04:43:12;;;;;;;;;39.00;32.50;;;;;;;;5121129;27;51020;-51
2022/11/25 04:45:56;;;;;;;;;39.75;32.25;;;;;;;;5121319;27;51586;-48
2022/11/25 04:48:41;;;;;;;;;41.75;34.25;;;;;;;;5105909;27;52140;-50
2022/11/25 04:51:25;;;;;;;;;37.50;32.00;;;;;;;;5120612;27;51103;-51
2022/11/25 04:54:10;;;;;;;;;41.50;33.75;;;;;;;;5120865;27;51096;-51
2022/11/25 04:56:54;;;;;;;;;46.00;38.75;;;;;;;;5105552;27;51495;-50
2022/11/25 04:59:38;;;;;;;;;44.50;35.00;;;;;;;;5120823;27;51234;-54
2022/11/25 05:02:27;;;;;;;;;43.25;34.50;;;;;;;;5103096;27;51342;-50
2022/11/25 05:05:11;;;;;;;;;43.75;35.25;;;;;;;;5100136;27;51304;-51
2022/11/25 05:07:56;;;;;;;;;43.75;35.75;;;;;;;;5100404;27;51115;-50
2022/11/25 05:10:40;;;;;;;;;46.00;38.25;;;;;;;;5120140;27;51078;-51
2022/11/25 05:13:24;;;;;;;;;46.25;38.00;;;;;;;;5120414;27;51098;-52
2022/11/25 05:16:09;;;;;;;;;49.75;40.00;;;;;;;;5121150;27;51204;-51
2022/11/25 05:18:55;;;;;;;;;52.25;41.25;;;;;;;;5120589;27;51143;-48
2022/11/25 05:21:39;;;;;;;;;50.50;40.75;;;;;;;;5110274;27;51072;-51
2022/11/25 05:24:24;;;;;;;;;52.50;40.50;;;;;;;;5116632;27;51100;-50
2022/11/25 05:27:09;;;;;;;;;55.00;43.75;;;;;;;;5121225;27;51099;-51
2022/11/25 05:29:53;;;;;;;;;55.00;43.25;;;;;;;;5119718;27;51450;-51
2022/11/25 05:32:39;;;;;;;;;52.75;43.75;;;;;;;;5120344;27;51252;-48
2022/11/25 05:35:23;;;;;;;;;52.25;43.25;;;;;;;;5120844;27;53036;-50
2022/11/25 05:38:07;;;;;;;;;53.75;42.00;;;;;;;;5120284;27;51066;-51
2022/11/25 05:40:53;;;;;;;;;55.00;41.50;;;;;;;;5120576;27;51123;-51
2022/11/25 05:43:37;;;;;;;;;52.25;40.50;;;;;;;;5120584;27;51396;-50
2022/11/25 05:46:21;;;;;;;;;51.25;41.00;;;;;;;;5120467;27;51149;-51
2022/11/25 05:49:06;;;;;;;;;52.50;42.25;;;;;;;;5120244;27;51445;-49
2022/11/25 05:51:50;;;;;;;;;54.50;44.00;;;;;;;;5114717;27;51139;-49
2022/11/25 05:54:35;;;;;;;;;54.00;43.50;;;;;;;;5113075;27;51343;-52
2022/11/25 05:57:19;;;;;;;;;53.25;44.00;;;;;;;;5102220;27;51151;-46
2022/11/25 06:00:04;;;;;;;;;52.50;40.75;;;;;;;;5109493;27;51666;-47
2022/11/25 06:02:49;;;;;;;;;52.25;41.25;;;;;;;;5104105;27;51040;-46
2022/11/25 06:05:34;;;;;;;;;51.25;42.00;;;;;;;;5103742;27;51108;-45
2022/11/25 06:08:18;;;;;;;;;55.75;43.00;;;;;;;;5103877;27;51108;-46
2022/11/25 06:11:13;;;;;;;;;55.50;43.50;;;;;;;;5103932;27;51194;-45
2022/11/25 06:13:57;;;;;;;;;51.75;43.25;;;;;;;;5124286;27;51137;-46
2022/11/25 06:16:42;;;;;;;;;58.75;46.25;;;;;;;;5124705;27;51228;-49
2022/11/25 06:19:26;;;;;;;;;53.00;43.00;;;;;;;;5124121;27;51494;-45
2022/11/25 06:22:11;;;;;;;;;56.00;42.75;;;;;;;;5108818;27;51231;-46
2022/11/25 06:24:55;;;;;;;;;58.00;46.50;;;;;;;;5124421;27;51668;-46
2022/11/25 06:27:39;;;;;;;;;55.00;44.50;;;;;;;;5123639;27;51062;-48
2022/11/25 06:30:24;;;;;;;;;59.25;45.00;;;;;;;;5124264;27;51070;-46
2022/11/25 06:33:09;;;;;;;;;59.00;45.75;;;;;;;;5124099;27;51349;-44
2022/11/25 06:35:54;;;;;;;;;57.00;44.25;;;;;;;;5124005;27;51587;-46
2022/11/25 06:38:38;;;;;;;;;57.00;45.75;;;;;;;;5123464;27;51045;-48
2022/11/25 06:41:23;;;;;;;;;57.25;45.25;;;;;;;;5123794;27;51025;-45
2022/11/25 06:44:07;;;;;;;;;58.25;46.00;;;;;;;;5123762;27;51191;-45
2022/11/25 06:46:52;;;;;;;;;59.25;45.25;;;;;;;;5123574;27;51105;-44
2022/11/25 06:49:36;;;;;;;;;59.75;47.00;;;;;;;;5123333;27;51086;-46
2022/11/25 06:52:20;;;;;;;;;56.50;45.50;;;;;;;;5123297;27;51174;-45
2022/11/25 06:55:05;;;;;;;;;52.50;42.75;;;;;;;;5123740;27;51012;-44
2022/11/25 06:57:49;;;;;;;;;55.75;44.00;;;;;;;;5123339;27;51113;-46
2022/11/25 07:00:34;;;;;;;;;52.25;41.25;;;;;;;;5123507;27;51715;-47
2022/11/25 07:03:18;;;;;;;;;51.50;41.25;;;;;;;;5123522;27;51065;-48
2022/11/25 07:06:03;;;;;;;;;56.50;45.75;;;;;;;;5123785;27;51017;-45
2022/11/25 07:08:48;;;;;;;;;56.75;44.00;;;;;;;;5087609;27;51122;-45
2022/11/25 07:11:33;;;;;;;;;46.00;39.25;;;;;;;;5102111;27;51195;-46
2022/11/25 07:14:17;;;;;;;;;48.50;40.00;;;;;;;;5102884;27;51565;-46
2022/11/25 07:17:02;;;;;;;;;48.00;36.50;;;;;;;;5122789;27;51202;-44
2022/11/25 07:19:46;;;;;;;;;50.50;39.50;;;;;;;;5120160;27;51029;-45
2022/11/25 07:22:30;;;;;;;;;45.25;37.50;;;;;;;;5105321;27;51170;-47
2022/11/25 07:25:15;;;;;;;;;47.75;35.75;;;;;;;;5102576;27;51122;-48
2022/11/25 07:27:59;;;;;;;;;44.75;37.75;;;;;;;;5121187;27;51074;-45
2022/11/25 07:30:44;;;;;;;;;46.25;37.25;;;;;;;;5121882;27;51302;-46
2022/11/25 07:33:28;;;;;;;;;47.50;39.00;;;;;;;;5117539;27;51081;-48
2022/11/25 07:36:13;;;;;;;;;45.50;34.75;;;;;;;;5122888;27;51282;-47
2022/11/25 07:38:58;;;;;;;;;42.50;34.75;;;;;;;;5122807;27;51645;-46
2022/11/25 07:41:42;;;;;;;;;41.50;34.25;;;;;;;;5122752;27;51095;-46
2022/11/25 07:44:27;;;;;;;;;38.00;34.00;;;;;;;;5123581;27;51136;-45
2022/11/25 07:47:11;;;;;;;;;43.75;34.00;;;;;;;;5122466;27;51073;-47
2022/11/25 07:49:56;;;;;;;;;45.50;35.50;;;;;;;;5106701;27;51195;-46
2022/11/25 07:52:41;;;;;;;;;38.75;31.25;;;;;;;;5114924;27;51122;-44
2022/11/25 07:55:25;;;;;;;;;37.50;32.25;;;;;;;;5112107;27;51178;-46
2022/11/25 07:58:09;;;;;;;;;41.25;32.25;;;;;;;;5102638;27;51411;-47
2022/11/25 08:00:54;;;;;;;;;39.00;32.25;;;;;;;;5118380;27;51105;-44
2022/11/25 08:03:39;;;;;;;;;32.50;29.00;;;;;;;;5103261;27;51057;-46
2022/11/25 08:06:33;;;;;;;;;31.50;29.00;;;;;;;;5101800;27;51153;-45
2022/11/25 08:09:19;;;;;;;;;35.00;30.00;;;;;;;;5104555;27;51199;-48
2022/11/25 08:12:03;;;;;;;;;28.75;27.00;;;;;;;;5122262;27;51139;-44
2022/11/25 08:14:48;;;;;;;;;37.50;29.25;;;;;;;;5122164;27;51371;-43
2022/11/25 08:17:32;;;;;;;;;33.00;26.25;;;;;;;;5120755;27;51077;-43
2022/11/25 08:20:17;;;;;;;;;30.00;26.00;;;;;;;;5121812;27;51093;-49
2022/11/25 08:23:01;;;;;;;;;33.50;28.00;;;;;;;;5120953;27;51458;-44
2022/11/25 08:25:46;;;;;;;;;32.00;27.75;;;;;;;;5112386;27;51262;-48
2022/11/25 08:28:30;;;;;;;;;26.25;26.00;;;;;;;;5101819;27;51084;-45
2022/11/25 08:31:16;;;;;;;;;31.25;25.75;;;;;;;;5121414;27;51061;-44
2022/11/25 08:34:02;;;;;;;;;32.00;29.75;;;;;;;;5117713;27;51010;-47
2022/11/25 08:36:47;;;;;;;;;31.50;28.75;;;;;;;;5097686;27;51154;-45
2022/11/25 08:39:31;;;;;;;;;35.25;29.50;;;;;;;;5117309;27;51508;-47
2022/11/25 08:42:16;;;;;;;;;31.50;28.50;;;;;;;;5121042;27;51163;-43
2022/11/25 08:45:00;;;;;;;;;32.00;28.75;;;;;;;;5121046;27;51132;-44
2022/11/25 08:47:45;;;;;;;;;34.50;29.00;;;;;;;;5111827;27;51578;-44
2022/11/25 08:50:29;;;;;;;;;32.75;27.75;;;;;;;;5100252;27;51070;-45
2022/11/25 08:53:13;;;;;;;;;32.25;29.50;;;;;;;;5117837;27;51116;-46
2022/11/25 08:55:58;;;;;;;;;28.75;28.25;;;;;;;;5100996;27;51010;-49
2022/11/25 08:58:42;;;;;;;;;25.75;23.75;;;;;;;;5113066;27;51515;-44
2022/11/25 09:01:27;;;;;;;;;25.25;22.25;;;;;;;;5121147;27;51058;-48
2022/11/25 09:04:11;;;;;;;;;25.00;20.50;;;;;;;;5121204;27;51074;-45
2022/11/25 09:06:56;;;;;;;;;45.00;37.00;;;;;;;;5120916;27;51190;-44
2022/11/25 09:09:40;;;;;;;;;27.00;25.75;;;;;;;;5121306;27;51080;-48
2022/11/25 09:12:24;;;;;;;;;30.75;27.75;;;;;;;;5120828;27;51236;-47
2022/11/25 09:15:09;;;;;;;;;32.25;26.00;;;;;;;;5121021;27;51236;-44
2022/11/25 09:18:01;;;;;;;;;37.50;31.50;;;;;;;;5120743;27;51596;-49
2022/11/25 09:20:46;;;;;;;;;35.00;30.00;;;;;;;;5120838;27;50951;-47
2022/11/25 09:23:30;;;;;;;;;24.00;22.25;;;;;;;;5120763;27;51561;-45
2022/11/25 09:26:25;;;;;;;;;33.50;30.50;;;;;;;;5120713;27;51236;-44
2022/11/25 09:29:11;;;;;;;;;27.50;26.75;;;;;;;;5120526;27;51494;-47
2022/11/25 09:31:56;;;;;;;;;26.00;22.00;;;;;;;;5120847;27;51323;-47
2022/11/25 09:34:40;;;;;;;;;24.75;22.25;;;;;;;;5124481;27;51035;-46
2022/11/25 09:37:24;;;;;;;;;24.00;23.00;;;;;;;;5124963;27;51089;-45
2022/11/25 09:40:17;;;;;;;;;28.50;25.00;;;;;;;;5125150;27;51030;-46
2022/11/25 09:46:40;;;;;;;;;27.75;23.75;;;;;;;;5125215;27;51056;-49
2022/11/25 09:49:52;;;;;;;;;25.25;23.50;;;;;;;;5124161;27;51251;-48
2022/11/25 09:53:01;;;;;;;;;26.25;24.25;;;;;;;;5122440;27;51124;-46
2022/11/25 09:55:48;;;;;;;;;25.25;22.50;;;;;;;;5122507;27;51161;-47
2022/11/25 09:58:34;;;;;;;;;25.00;24.25;;;;;;;;5122995;27;51154;-49
2022/11/25 10:01:21;;;;;;;;;25.25;22.00;;;;;;;;5123397;27;51230;-46
2022/11/25 10:04:10;;;;;;;;;24.25;24.25;;;;;;;;5122746;27;51152;-44
2022/11/25 10:06:57;;;;;;;;;25.00;24.25;;;;;;;;5123452;27;51184;-46
2022/11/25 10:09:42;;;;;;;;;28.25;26.25;;;;;;;;5124614;27;51335;-47
2022/11/25 10:12:38;;;;;;;;;25.50;21.25;;;;;;;;5124825;27;51057;-48
2022/11/25 10:15:22;;;;;;;;;25.25;24.00;;;;;;;;5124150;27;51560;-46
2022/11/25 10:18:14;;;;;;;;;24.75;24.50;;;;;;;;5123729;27;51045;-46
2022/11/25 10:20:58;;;;;;;;;26.50;23.75;;;;;;;;5124460;27;51373;-47
2022/11/25 10:23:43;;;;;;;;;25.00;23.50;;;;;;;;5124132;27;50999;-45
2022/11/25 10:26:31;;;;;;;;;22.75;21.75;;;;;;;;5124330;27;50989;-47
2022/11/25 10:29:28;;;;;;;;;21.50;21.25;;;;;;;;5123964;27;51373;-45
2022/11/25 10:32:23;;;;;;;;;29.25;23.00;;;;;;;;5123845;27;51096;-45
2022/11/25 10:35:14;;;;;;;;;28.25;24.00;;;;;;;;5114834;27;51114;-49
2022/11/25 10:38:00;;;;;;;;;28.50;25.50;;;;;;;;5119325;27;51157;-46
2022/11/25 10:40:47;;;;;;;;;26.50;24.50;;;;;;;;5121822;27;51365;-46
2022/11/25 10:43:32;;;;;;;;;25.00;23.25;;;;;;;;5121566;27;51187;-43
2022/11/25 10:46:25;;;;;;;;;24.50;23.50;;;;;;;;5121296;27;51183;-45
2022/11/25 10:49:13;;;;;;;;;24.00;22.50;;;;;;;;5121824;27;51192;-47
2022/11/25 10:51:58;;;;;;;;;25.25;25.25;;;;;;;;5122529;27;51140;-45
2022/11/25 10:54:54;;;;;;;;;33.75;28.25;;;;;;;;5123112;27;51159;-46
2022/11/25 10:57:39;;;;;;;;;31.75;27.25;;;;;;;;5123448;27;51043;-49
2022/11/25 11:00:25;;;;;;;;;26.00;23.50;;;;;;;;5123490;27;51126;-46
2022/11/25 11:03:21;;;;;;;;;25.00;22.50;;;;;;;;5124269;27;51078;-47
2022/11/25 11:06:26;;;;;;;;;27.75;25.50;;;;;;;;5123335;27;51491;-49
2022/11/25 11:09:30;;;;;;;;;23.75;21.50;;;;;;;;5123289;27;51210;-47
2022/11/25 11:12:21;;;;;;;;;23.00;20.25;;;;;;;;5122346;27;51191;-45
2022/11/25 11:15:22;;;;;;;;;19.75;19.50;;;;;;;;5123269;27;51095;-45
2022/11/25 11:18:32;;;;;;;;;26.25;21.75;;;;;;;;5123606;27;51083;-46
2022/11/25 11:21:23;;;;;;;;;21.50;19.75;;;;;;;;5123221;27;51357;-45
2022/11/25 11:24:25;;;;;;;;;24.25;22.50;;;;;;;;5123210;27;51067;-46
2022/11/25 11:27:08;;;;;;;;;27.25;23.75;;;;;;;;5116272;27;51027;-46
2022/11/25 11:30:23;;;;;;;;;29.00;24.50;;;;;;;;5122729;27;51175;-47
2022/11/25 11:33:25;;;;;;;;;22.75;22.00;;;;;;;;5110349;27;51465;-46
2022/11/25 11:36:10;;;;;;;;;23.50;21.75;;;;;;;;5122991;27;51171;-45
2022/11/25 11:39:18;;;;;;;;;23.50;20.75;;;;;;;;5123116;27;51282;-48
2022/11/25 11:42:02;;;;;;;;;24.25;23.25;;;;;;;;5122822;27;51069;-46
2022/11/25 11:45:06;;;;;;;;;18.00;18.00;;;;;;;;5122973;27;51052;-44
2022/11/25 11:48:09;;;;;;;;;23.50;20.75;;;;;;;;5074935;27;51047;-46
2022/11/25 11:50:59;;;;;;;;;27.00;21.25;;;;;;;;5122575;27;51100;-48
2022/11/25 11:53:55;;;;;;;;;21.50;19.75;;;;;;;;5122533;27;51041;-49
2022/11/25 11:57:15;;;;;;;;;26.25;20.75;;;;;;;;5122044;27;52069;-43
2022/11/25 12:00:03;;;;;;;;;22.25;19.50;;;;;;;;4999562;28;51119;-46
2022/11/25 12:03:04;;;;;;;;;21.25;20.25;;;;;;;;5122086;27;51041;-44
2022/11/25 12:05:54;;;;;;;;;21.75;19.25;;;;;;;;5122464;27;51349;-43
2022/11/25 12:08:51;;;;;;;;;21.00;19.50;;;;;;;;5122083;27;51188;-44
2022/11/25 12:11:39;;;;;;;;;29.75;26.25;;;;;;;;5122519;27;51139;-46
2022/11/25 12:14:55;;;;;;;;;21.50;20.75;;;;;;;;5122055;27;51459;-43
2022/11/25 12:17:45;;;;;;;;;22.00;20.00;;;;;;;;5070184;27;51064;-44
2022/11/25 12:20:49;;;;;;;;;26.00;20.25;;;;;;;;5122155;27;51180;-46
2022/11/25 12:23:40;;;;;;;;;22.00;20.00;;;;;;;;5122304;27;51075;-44
2022/11/25 12:26:36;;;;;;;;;17.00;17.00;;;;;;;;5121591;27;51504;-46
2022/11/25 12:29:33;;;;;;;;;21.00;20.75;;;;;;;;5121665;27;51168;-45
2022/11/25 12:32:30;;;;;;;;;21.50;20.00;;;;;;;;5121804;27;51447;-45
2022/11/25 12:35:21;;;;;;;;;23.50;23.50;;;;;;;;5121392;27;51313;-49
2022/11/25 12:38:11;;;;;;;;;19.75;18.00;;;;;;;;5122027;27;51086;-47
2022/11/25 12:41:07;;;;;;;;;17.00;16.75;;;;;;;;5121645;27;51424;-46
2022/11/25 12:43:59;;;;;;;;;20.50;19.75;;;;;;;;5121852;27;51065;-45
2022/11/25 12:46:51;;;;;;;;;19.75;19.75;;;;;;;;5121754;27;51058;-46
2022/11/25 12:49:39;;;;;;;;;19.50;18.25;;;;;;;;5121965;27;51033;-43
2022/11/25 12:52:39;;;;;;;;;19.75;19.50;;;;;;;;5121006;27;51567;-46
2022/11/25 12:55:24;;;;;;;;;18.25;17.75;;;;;;;;5121593;27;51236;-45
2022/11/25 12:58:33;;;;;;;;;16.50;16.50;;;;;;;;5121321;27;51402;-43
2022/11/25 13:01:40;;;;;;;;;22.25;18.75;;;;;;;;5120970;27;51098;-44
2022/11/25 13:04:27;;;;;;;;;20.75;19.25;;;;;;;;5108826;27;51120;-47
2022/11/25 13:07:35;;;;;;;;;20.00;17.75;;;;;;;;5100404;27;51505;-45
2022/11/25 13:10:34;;;;;;;;;33.75;25.00;;;;;;;;5100124;27;51043;-47
2022/11/25 13:13:42;;;;;;;;;25.25;21.50;;;;;;;;5101494;27;51227;-46
2022/11/25 13:16:26;;;;;;;;;25.50;21.25;;;;;;;;5121553;27;51068;-45
2022/11/25 13:19:15;;;;;;;;;20.75;17.50;;;;;;;;5120780;27;51323;-44
2022/11/25 13:22:01;;;;;;;;;24.50;21.75;;;;;;;;5104434;27;51216;-45
2022/11/25 13:24:45;;;;;;;;;24.25;21.50;;;;;;;;5121247;27;51468;-45
2022/11/25 13:27:52;;;;;;;;;18.25;16.50;;;;;;;;5120608;27;51225;-46
2022/11/25 13:30:38;;;;;;;;;25.25;17.50;;;;;;;;5121233;27;51179;-47
2022/11/25 13:33:23;;;;;;;;;22.75;21.75;;;;;;;;5110899;27;52289;-45
2022/11/25 13:36:16;;;;;;;;;21.25;21.25;;;;;;;;5115412;27;51662;-45
2022/11/25 13:39:10;;;;;;;;;23.25;20.50;;;;;;;;5120894;27;51144;-49
2022/11/25 13:42:02;;;;;;;;;20.75;19.00;;;;;;;;5121358;27;51025;-44
2022/11/25 13:44:54;;;;;;;;;18.50;18.00;;;;;;;;5120821;27;51107;-44
2022/11/25 13:47:43;;;;;;;;;21.00;20.50;;;;;;;;5119170;27;51180;-44
2022/11/25 13:50:28;;;;;;;;;24.00;19.00;;;;;;;;5100172;27;51475;-44
2022/11/25 13:53:36;;;;;;;;;23.75;21.50;;;;;;;;5100564;27;52530;-46
2022/11/25 13:56:36;;;;;;;;;22.00;18.50;;;;;;;;5096206;27;51118;-46
2022/11/25 13:59:33;;;;;;;;;22.50;16.50;;;;;;;;5120500;27;51539;-46
2022/11/25 14:02:26;;;;;;;;;19.00;17.00;;;;;;;;5121040;27;51154;-46
2022/11/25 14:05:37;;;;;;;;;20.75;17.50;;;;;;;;5120686;27;51192;-46
2022/11/25 14:08:42;;;;;;;;;22.25;15.00;;;;;;;;5121134;27;51034;-46
2022/11/25 14:11:38;;;;;;;;;21.00;19.25;;;;;;;;5104170;27;51363;-45
2022/11/25 14:14:29;;;;;;;;;17.25;15.50;;;;;;;;5099913;27;51129;-47
2022/11/25 14:17:20;;;;;;;;;18.50;17.25;;;;;;;;5100012;27;51137;-45
2022/11/25 14:20:13;;;;;;;;;17.75;16.25;;;;;;;;5104502;27;51105;-45
2022/11/25 14:23:18;;;;;;;;;16.25;15.00;;;;;;;;5104050;27;51154;-49
2022/11/25 14:26:07;;;;;;;;;18.25;17.00;;;;;;;;5104434;27;51339;-45
2022/11/25 14:28:54;;;;;;;;;17.00;14.75;;;;;;;;5115534;27;51092;-48
2022/11/25 14:31:49;;;;;;;;;19.50;17.25;;;;;;;;5124958;27;51110;-46
2022/11/25 14:34:45;;;;;;;;;16.50;15.75;;;;;;;;5124355;27;51026;-47
2022/11/25 14:37:49;;;;;;;;;16.75;15.00;;;;;;;;5115332;27;51157;-46
2022/11/25 14:40:37;;;;;;;;;21.25;17.75;;;;;;;;5103451;27;51172;-45
2022/11/25 14:43:26;;;;;;;;;25.00;21.00;;;;;;;;5119591;27;51923;-46
2022/11/25 14:46:19;;;;;;;;;20.75;19.00;;;;;;;;5123989;27;51141;-46
2022/11/25 14:49:04;;;;;;;;;22.25;18.75;;;;;;;;5123899;27;51216;-46
2022/11/25 14:51:49;;;;;;;;;18.25;16.75;;;;;;;;5123393;27;51256;-46
2022/11/25 14:54:39;;;;;;;;;20.00;18.00;;;;;;;;5123954;27;51108;-44
2022/11/25 14:57:24;;;;;;;;;18.00;16.50;;;;;;;;5123793;27;51110;-45
2022/11/25 15:00:15;;;;;;;;;21.25;20.00;;;;;;;;5124034;27;51329;-46
2022/11/25 15:03:01;;;;;;;;;22.00;19.25;;;;;;;;5123189;27;51364;-48
2022/11/25 15:05:52;;;;;;;;;22.25;18.75;;;;;;;;5123334;27;51131;-48
2022/11/25 15:08:53;;;;;;;;;24.75;23.50;;;;;;;;5123855;27;51132;-46
2022/11/25 15:11:38;;;;;;;;;19.50;17.25;;;;;;;;5123507;27;51373;-48
2022/11/25 15:14:27;;;;;;;;;21.75;19.50;;;;;;;;5123735;27;51138;-47
2022/11/25 15:17:25;;;;;;;;;25.75;23.00;;;;;;;;5122976;27;51564;-47
2022/11/25 15:20:11;;;;;;;;;30.50;24.00;;;;;;;;5123284;27;51502;-46
2022/11/25 15:22:56;;;;;;;;;25.00;22.75;;;;;;;;5107589;27;51157;-46
2022/11/25 15:25:50;;;;;;;;;25.00;21.75;;;;;;;;5123744;27;51118;-48
2022/11/25 15:28:36;;;;;;;;;27.00;25.00;;;;;;;;5122870;27;51407;-46
2022/11/25 15:31:20;;;;;;;;;29.00;23.25;;;;;;;;5122636;27;51145;-45
2022/11/25 15:34:06;;;;;;;;;26.25;23.00;;;;;;;;5104877;27;51057;-46
2022/11/25 15:36:51;;;;;;;;;28.00;25.50;;;;;;;;5102499;27;50972;-47
2022/11/25 15:39:36;;;;;;;;;31.75;27.00;;;;;;;;5102682;27;51089;-45
2022/11/25 15:42:27;;;;;;;;;29.50;24.75;;;;;;;;5102244;27;51580;-46
2022/11/25 15:45:19;;;;;;;;;29.25;24.50;;;;;;;;5102505;27;51469;-46
2022/11/25 15:48:04;;;;;;;;;28.50;23.75;;;;;;;;5119808;27;51084;-46
2022/11/25 15:50:48;;;;;;;;;26.50;23.25;;;;;;;;5118863;27;51144;-46
2022/11/25 15:53:36;;;;;;;;;21.25;20.25;;;;;;;;5101993;27;51537;-45
2022/11/25 15:56:23;;;;;;;;;21.25;18.75;;;;;;;;5119309;27;51145;-47
2022/11/25 15:59:27;;;;;;;;;23.25;19.50;;;;;;;;5122732;27;51492;-47
2022/11/25 16:02:30;;;;;;;;;19.75;18.50;;;;;;;;5122748;27;51083;-49
2022/11/25 16:05:17;;;;;;;;;17.75;15.75;;;;;;;;5123777;27;51146;-45
2022/11/25 16:08:14;;;;;;;;;23.25;20.25;;;;;;;;5122279;27;51524;-45
2022/11/25 16:11:14;;;;;;;;;24.75;20.50;;;;;;;;5102520;27;51178;-47
2022/11/25 16:14:18;;;;;;;;;21.25;19.50;;;;;;;;5121108;27;51120;-46
2022/11/25 16:17:09;;;;;;;;;25.25;20.75;;;;;;;;5122475;27;51148;-46
2022/11/25 16:19:54;;;;;;;;;21.75;19.75;;;;;;;;5121652;27;51109;-45
2022/11/25 16:22:38;;;;;;;;;31.00;27.75;;;;;;;;5122298;27;51125;-44
2022/11/25 16:25:23;;;;;;;;;27.50;21.00;;;;;;;;5122463;27;51065;-45